Time;durP1;ratioP1;P1;durP2;ratioP2;P2;SDS_P1;SDS_P2;PMS_P1;PMS_P2;Temp;Humidity;BMP_temperature;BMP_pressure;BME280_temperature;BME280_humidity;BME280_pressure;Samples;Min_cycle;Max_cycle;Signal;HPM_P1;HPM_P2
2022/03/17 00:01:12;;;;;;;27.33;18.10;;;10.10;99.90;;;;;;5013343;28;20057;-64
2022/03/17 00:03:38;;;;;;;24.65;16.92;;;10.20;99.90;;;;;;5013286;28;20064;-63
2022/03/17 00:06:05;;;;;;;24.65;16.55;;;10.20;99.90;;;;;;5012672;28;20052;-64
2022/03/17 00:08:31;;;;;;;27.38;17.30;;;10.20;99.90;;;;;;5013023;28;20058;-64
2022/03/17 00:10:57;;;;;;;26.83;17.60;;;10.20;99.90;;;;;;5013078;28;20383;-64
2022/03/17 00:13:22;;;;;;;26.10;17.65;;;10.20;99.90;;;;;;5012075;28;20546;-64
2022/03/17 00:15:48;;;;;;;30.73;18.95;;;10.20;99.90;;;;;;5014161;28;20058;-63
2022/03/17 00:18:14;;;;;;;24.73;18.17;;;10.20;99.90;;;;;;5012162;28;20060;-63
2022/03/17 00:20:39;;;;;;;25.73;17.45;;;10.20;99.90;;;;;;5013791;28;20088;-65
2022/03/17 00:23:05;;;;;;;24.30;17.42;;;10.20;99.90;;;;;;5012707;28;20148;-64
2022/03/17 00:25:32;;;;;;;26.52;18.45;;;10.10;99.90;;;;;;5012694;28;20054;-63
2022/03/17 00:27:58;;;;;;;24.98;17.40;;;10.10;99.90;;;;;;5011933;28;20050;-64
2022/03/17 00:30:25;;;;;;;26.13;18.20;;;10.10;99.90;;;;;;5010357;28;20470;-64
2022/03/17 00:32:50;;;;;;;26.23;18.35;;;10.10;99.90;;;;;;5011253;28;20375;-63
2022/03/17 00:38:01;;;;;;;27.55;18.52;;;10.00;99.90;;;;;;5013773;28;20058;-64
2022/03/17 00:40:27;;;;;;;27.88;18.95;;;10.10;99.90;;;;;;5004327;28;20121;-65
2022/03/17 00:42:53;;;;;;;24.65;17.98;;;10.00;99.90;;;;;;4992537;28;20194;-63
2022/03/17 00:45:19;;;;;;;27.88;18.80;;;10.10;99.90;;;;;;5002475;28;20408;-64
2022/03/17 00:47:44;;;;;;;29.42;19.75;;;10.00;99.90;;;;;;5012341;28;20050;-63
2022/03/17 00:50:10;;;;;;;27.45;18.17;;;10.00;99.90;;;;;;5013508;28;20567;-64
2022/03/17 00:52:36;;;;;;;26.35;18.05;;;10.00;99.90;;;;;;5011228;28;20173;-65
2022/03/17 00:55:05;;;;;;;27.63;19.45;;;10.00;99.90;;;;;;5013415;28;20165;-64
2022/03/17 00:57:31;;;;;;;28.00;19.40;;;10.00;99.90;;;;;;5011497;28;20049;-64
2022/03/17 00:59:56;;;;;;;29.65;18.33;;;10.00;99.90;;;;;;5012378;28;20053;-63
2022/03/17 01:02:22;;;;;;;28.85;18.90;;;10.00;99.90;;;;;;5011946;28;20101;-64
2022/03/17 01:04:47;;;;;;;28.05;19.77;;;9.90;99.90;;;;;;5011876;28;20427;-64
2022/03/17 01:07:13;;;;;;;26.77;18.65;;;10.00;99.90;;;;;;5012204;28;20050;-63
2022/03/17 01:09:39;;;;;;;25.27;18.70;;;10.00;99.90;;;;;;5011777;28;20489;-64
2022/03/17 01:12:04;;;;;;;29.60;19.88;;;10.00;99.90;;;;;;5011173;28;20085;-64
2022/03/17 01:14:30;;;;;;;25.92;18.02;;;9.90;99.90;;;;;;5009827;28;20049;-64
2022/03/17 01:16:56;;;;;;;25.67;17.85;;;9.90;99.90;;;;;;5012056;28;20060;-64
2022/03/17 01:19:22;;;;;;;27.13;19.17;;;9.90;99.90;;;;;;5011778;28;20050;-64
2022/03/17 01:21:48;;;;;;;27.85;17.77;;;9.90;99.90;;;;;;5004147;28;20084;-64
2022/03/17 01:24:14;;;;;;;25.95;18.15;;;9.90;99.90;;;;;;4993131;28;20086;-64
2022/03/17 01:26:40;;;;;;;27.33;19.33;;;9.90;99.90;;;;;;4997726;28;20056;-63
2022/03/17 01:29:06;;;;;;;28.70;19.30;;;9.90;99.90;;;;;;5011546;28;20109;-63
2022/03/17 01:31:32;;;;;;;26.25;19.42;;;10.00;99.90;;;;;;5013832;28;20449;-64
2022/03/17 01:33:58;;;;;;;27.05;19.38;;;9.90;99.90;;;;;;5015379;28;20038;-64
2022/03/17 01:36:24;;;;;;;35.05;18.48;;;9.90;99.90;;;;;;5017142;28;20049;-64
2022/03/17 01:38:50;;;;;;;28.13;19.05;;;9.90;99.90;;;;;;5006170;28;20054;-64
2022/03/17 01:41:15;;;;;;;26.80;19.23;;;9.90;99.90;;;;;;4995809;28;20551;-64
2022/03/17 01:43:41;;;;;;;26.90;19.48;;;9.90;99.90;;;;;;4995834;28;20055;-64
2022/03/17 01:46:09;;;;;;;26.92;19.13;;;9.90;99.90;;;;;;4997131;28;20062;-64
2022/03/17 01:48:34;;;;;;;28.45;19.08;;;9.90;99.90;;;;;;5002622;28;20436;-64
2022/03/17 01:51:00;;;;;;;28.80;20.08;;;9.90;99.90;;;;;;5003192;28;20129;-64
2022/03/17 01:53:25;;;;;;;27.00;18.73;;;9.90;99.90;;;;;;5015262;28;20208;-64
2022/03/17 01:55:51;;;;;;;28.50;18.95;;;9.90;99.90;;;;;;5016810;28;20167;-64
2022/03/17 01:58:17;;;;;;;25.77;18.65;;;9.90;99.90;;;;;;5015292;28;20061;-64
2022/03/17 02:00:47;;;;;;;29.60;19.38;;;9.90;99.90;;;;;;5016463;28;20157;-64
2022/03/17 02:03:13;;;;;;;30.60;19.17;;;9.90;99.90;;;;;;4995861;28;20073;-64
2022/03/17 02:05:39;;;;;;;27.77;19.30;;;9.90;99.90;;;;;;4999542;28;20442;-65
2022/03/17 02:08:09;;;;;;;27.55;18.85;;;9.90;99.90;;;;;;5013824;28;20057;-63
2022/03/17 02:13:08;;;;;;;27.08;19.95;;;9.80;99.90;;;;;;4996914;28;20054;-64
2022/03/17 02:13:21;;;;;;;33.40;21.63;;;9.80;99.90;;;;;;4994967;28;20054;-65
2022/03/17 02:15:57;;;;;;;30.27;19.65;;;9.80;99.90;;;;;;4995909;28;20181;-64
2022/03/17 02:18:23;;;;;;;28.40;19.42;;;9.80;99.90;;;;;;4995410;28;20058;-64
2022/03/17 02:20:49;;;;;;;25.80;19.02;;;9.70;99.90;;;;;;4995504;28;20061;-63
2022/03/17 02:26:05;;;;;;;29.80;19.85;;;9.70;99.90;;;;;;5004522;28;20077;-63
2022/03/17 02:28:32;;;;;;;29.02;20.00;;;9.70;99.90;;;;;;4997612;28;20057;-63
2022/03/17 02:31:01;;;;;;;26.60;19.33;;;9.70;99.90;;;;;;5014222;28;20057;-64
2022/03/17 02:33:27;;;;;;;27.42;19.50;;;9.70;99.90;;;;;;5014780;28;20436;-64
2022/03/17 02:35:53;;;;;;;26.17;19.52;;;9.60;99.90;;;;;;4998087;28;20147;-64
2022/03/17 02:38:21;;;;;;;29.50;20.67;;;9.60;99.90;;;;;;5014393;28;20054;-64
2022/03/17 02:40:48;;;;;;;28.35;20.13;;;9.60;99.90;;;;;;4998052;28;20064;-63
2022/03/17 02:43:15;;;;;;;26.08;19.15;;;9.60;99.90;;;;;;5013063;28;20172;-64
2022/03/17 02:45:42;;;;;;;26.85;18.83;;;9.70;99.90;;;;;;5014642;28;20054;-65
2022/03/17 02:48:08;;;;;;;28.48;20.42;;;9.60;99.90;;;;;;5013663;28;20402;-64
2022/03/17 02:50:34;;;;;;;28.77;19.88;;;9.60;99.90;;;;;;5014283;28;20054;-64
2022/03/17 02:53:05;;;;;;;27.38;20.02;;;9.60;99.90;;;;;;5015894;28;20054;-63
2022/03/17 02:55:38;;;;;;;28.58;19.92;;;9.60;99.90;;;;;;5014947;28;20498;-64
2022/03/17 02:58:05;;;;;;;26.30;18.80;;;9.60;99.90;;;;;;5014426;28;20125;-65
2022/03/17 03:00:31;;;;;;;28.70;20.25;;;9.60;99.90;;;;;;5012967;28;20058;-64
2022/03/17 03:02:57;;;;;;;32.83;21.08;;;9.60;99.90;;;;;;4996062;28;20057;-64
2022/03/17 03:05:22;;;;;;;24.23;19.10;;;9.60;99.90;;;;;;4995852;28;20050;-64
2022/03/17 03:07:48;;;;;;;31.30;20.48;;;9.60;99.90;;;;;;4994279;28;20397;-64
2022/03/17 03:10:14;;;;;;;30.20;21.10;;;9.60;99.90;;;;;;5007262;28;20085;-65
2022/03/17 03:12:40;;;;;;;28.90;20.15;;;9.70;99.90;;;;;;5014709;28;20088;-64
2022/03/17 03:15:06;;;;;;;27.02;19.48;;;9.70;99.90;;;;;;5015304;28;20045;-65
2022/03/17 03:17:32;;;;;;;32.08;21.38;;;9.70;99.90;;;;;;5012959;28;20170;-64
2022/03/17 03:19:58;;;;;;;28.38;19.98;;;9.70;99.90;;;;;;5012891;28;20081;-63
2022/03/17 03:22:28;;;;;;;27.52;20.02;;;9.70;99.90;;;;;;5013595;28;20083;-64
2022/03/17 03:24:57;;;;;;;29.77;22.02;;;9.80;99.90;;;;;;5015177;28;20137;-63
2022/03/17 03:27:27;;;;;;;29.50;21.20;;;9.80;99.90;;;;;;5014276;28;20103;-64
2022/03/17 03:29:54;;;;;;;26.95;20.90;;;9.80;99.90;;;;;;5013671;28;20119;-63
2022/03/17 03:32:19;;;;;;;29.13;21.50;;;9.80;99.90;;;;;;5013401;28;20062;-64
2022/03/17 03:34:45;;;;;;;30.23;21.83;;;9.90;99.90;;;;;;5013519;28;20379;-64
2022/03/17 03:37:25;;;;;;;30.50;20.95;;;9.90;99.90;;;;;;5013433;28;20052;-64
2022/03/17 03:39:56;;;;;;;28.02;20.95;;;9.90;99.90;;;;;;5014404;28;20053;-64
2022/03/17 03:42:23;;;;;;;29.55;21.45;;;10.00;99.90;;;;;;5011433;28;20192;-65
2022/03/17 03:44:49;;;;;;;27.08;20.92;;;10.00;99.90;;;;;;4995372;28;20084;-64
2022/03/17 03:47:16;;;;;;;30.15;20.83;;;10.00;99.90;;;;;;5009636;28;20050;-63
2022/03/17 03:49:42;;;;;;;26.70;20.50;;;10.10;99.90;;;;;;5013639;28;20058;-63
2022/03/17 03:52:11;;;;;;;31.90;23.10;;;10.10;99.90;;;;;;5013912;28;20124;-65
2022/03/17 03:54:37;;;;;;;27.98;21.52;;;10.10;99.90;;;;;;5012937;28;20108;-63
2022/03/17 03:57:04;;;;;;;29.52;21.10;;;10.10;99.90;;;;;;5013702;28;20053;-64
2022/03/17 03:59:30;;;;;;;29.13;21.85;;;10.10;99.90;;;;;;5013507;28;20089;-64
2022/03/17 04:02:04;;;;;;;27.15;20.35;;;10.10;99.90;;;;;;5014424;28;20072;-64
2022/03/17 04:04:34;;;;;;;30.15;21.95;;;10.10;99.90;;;;;;5013831;28;20045;-64
2022/03/17 04:07:03;;;;;;;28.30;21.92;;;10.10;99.90;;;;;;5012305;28;20050;-64
2022/03/17 04:09:34;;;;;;;29.35;22.25;;;10.10;99.90;;;;;;4995349;28;20487;-64
2022/03/17 04:12:01;;;;;;;30.02;21.73;;;10.10;99.90;;;;;;4992945;28;20096;-64
2022/03/17 04:14:27;;;;;;;32.45;21.85;;;10.10;99.90;;;;;;4993038;28;20054;-63
2022/03/17 04:16:53;;;;;;;29.65;21.75;;;10.10;99.90;;;;;;4977181;28;20375;-64
2022/03/17 04:19:19;;;;;;;30.52;22.88;;;10.10;99.90;;;;;;5009978;28;20070;-64
2022/03/17 04:21:46;;;;;;;29.58;23.75;;;10.10;99.90;;;;;;5014277;28;20392;-64
2022/03/17 04:24:12;;;;;;;35.30;24.45;;;10.10;99.90;;;;;;5013947;28;20058;-64
2022/03/17 04:26:37;;;;;;;33.75;25.02;;;10.10;99.90;;;;;;5010188;28;20077;-63
2022/03/17 04:29:03;;;;;;;31.63;23.80;;;10.00;99.90;;;;;;5012930;28;20115;-64
2022/03/17 04:31:29;;;;;;;36.53;26.33;;;10.00;99.90;;;;;;5014174;28;20108;-64
2022/03/17 04:33:56;;;;;;;32.15;25.08;;;10.00;99.90;;;;;;4996626;28;20132;-64
2022/03/17 04:36:22;;;;;;;34.50;25.23;;;10.00;99.90;;;;;;5012328;28;20069;-64
2022/03/17 04:38:48;;;;;;;38.88;27.38;;;9.90;99.90;;;;;;5012004;28;20058;-64
2022/03/17 04:41:14;;;;;;;38.13;27.27;;;9.90;99.90;;;;;;5013056;28;20057;-64
2022/03/17 04:43:40;;;;;;;40.22;27.80;;;9.80;99.90;;;;;;5012088;28;20058;-64
2022/03/17 04:46:09;;;;;;;41.20;29.13;;;9.80;99.90;;;;;;5013318;28;20421;-64
2022/03/17 04:48:35;;;;;;;41.72;28.02;;;9.80;99.90;;;;;;4994411;28;20065;-64
2022/03/17 04:51:01;;;;;;;45.28;29.73;;;9.70;99.90;;;;;;4992933;28;20088;-64
2022/03/17 04:53:27;;;;;;;46.75;30.88;;;9.70;99.90;;;;;;4993558;28;20093;-64
2022/03/17 04:55:59;;;;;;;47.88;31.13;;;9.70;99.90;;;;;;4992482;28;20053;-65
2022/03/17 04:58:25;;;;;;;47.92;33.10;;;9.60;99.90;;;;;;4996577;28;20137;-64
2022/03/17 05:00:52;;;;;;;49.25;31.65;;;9.60;99.90;;;;;;5012173;28;20456;-64
2022/03/17 05:03:19;;;;;;;47.20;31.00;;;9.50;99.90;;;;;;5012360;28;20513;-64
2022/03/17 05:05:45;;;;;;;49.10;31.70;;;9.50;99.90;;;;;;5011856;28;20104;-63
2022/03/17 05:08:10;;;;;;;51.45;32.60;;;9.50;99.90;;;;;;5012282;28;20050;-64
2022/03/17 05:10:37;;;;;;;52.03;33.70;;;9.50;99.90;;;;;;5012021;28;20145;-63
2022/03/17 05:13:07;;;;;;;47.88;29.63;;;9.50;99.90;;;;;;5010550;28;20050;-65
2022/03/17 05:15:33;;;;;;;40.55;26.23;;;9.50;99.90;;;;;;5012747;28;20046;-64
2022/03/17 05:17:59;;;;;;;38.25;24.00;;;9.50;99.90;;;;;;5011734;28;20054;-64
2022/03/17 05:20:25;;;;;;;33.15;20.70;;;9.50;99.90;;;;;;5012055;28;20053;-64
2022/03/17 05:22:52;;;;;;;19.73;13.98;;;9.50;99.90;;;;;;5011314;28;20064;-65
2022/03/17 05:25:18;;;;;;;15.45;10.30;;;9.40;99.90;;;;;;5013207;28;20061;-65
2022/03/17 05:27:45;;;;;;;13.38;8.70;;;9.20;99.90;;;;;;4999563;28;20051;-64
2022/03/17 05:30:16;;;;;;;12.85;9.40;;;9.20;99.90;;;;;;5011775;28;20137;-64
2022/03/17 05:32:43;;;;;;;10.65;8.27;;;9.00;99.90;;;;;;5012955;28;20129;-64
2022/03/17 05:35:10;;;;;;;8.48;6.30;;;8.90;99.90;;;;;;5011860;28;20482;-64
2022/03/17 05:37:36;;;;;;;7.93;6.90;;;8.80;99.90;;;;;;5011521;28;20089;-65
2022/03/17 05:40:13;;;;;;;8.43;6.97;;;8.60;99.90;;;;;;5011511;28;20046;-65
2022/03/17 05:42:42;;;;;;;9.45;7.07;;;8.50;99.90;;;;;;5008084;28;20084;-65
2022/03/17 05:45:09;;;;;;;9.45;6.80;;;8.40;99.90;;;;;;5012000;28;20042;-65
2022/03/17 05:47:41;;;;;;;9.18;7.90;;;8.40;99.90;;;;;;5011754;28;20058;-66
2022/03/17 05:50:09;;;;;;;9.45;7.80;;;8.30;99.90;;;;;;5012959;28;20057;-65
2022/03/17 05:52:38;;;;;;;10.43;7.40;;;8.20;99.90;;;;;;5011801;28;20104;-64
2022/03/17 05:55:05;;;;;;;10.55;7.25;;;8.20;99.90;;;;;;5012740;28;20156;-65
2022/03/17 05:57:31;;;;;;;11.20;8.55;;;8.10;99.90;;;;;;5008722;28;20077;-65
2022/03/17 05:59:56;;;;;;;12.43;8.45;;;8.10;99.90;;;;;;5011998;28;20054;-64
2022/03/17 06:02:22;;;;;;;11.32;9.07;;;8.10;99.90;;;;;;5011375;28;20383;-65
2022/03/17 06:04:47;;;;;;;13.23;9.13;;;8.10;99.90;;;;;;5001819;28;20494;-66
2022/03/17 06:07:13;;;;;;;15.48;9.43;;;8.00;99.90;;;;;;5005723;28;20054;-66
2022/03/17 06:09:41;;;;;;;14.38;8.23;;;8.00;99.90;;;;;;5008569;28;20509;-65
2022/03/17 06:12:09;;;;;;;14.80;8.93;;;8.00;99.90;;;;;;5000743;28;20152;-63
2022/03/17 06:14:35;;;;;;;11.63;8.52;;;7.90;99.90;;;;;;5011514;28;20478;-63
2022/03/17 06:17:00;;;;;;;14.68;8.38;;;7.90;99.90;;;;;;5000066;28;20056;-64
2022/03/17 06:19:26;;;;;;;16.38;8.85;;;7.90;99.90;;;;;;5008912;28;20068;-65
2022/03/17 06:21:52;;;;;;;15.65;9.05;;;7.90;99.90;;;;;;5016410;28;20065;-65
2022/03/17 06:24:18;;;;;;;15.32;8.85;;;7.90;99.90;;;;;;5014618;28;20050;-64
2022/03/17 06:26:44;;;;;;;12.57;8.45;;;7.90;99.90;;;;;;5015400;28;20200;-65
2022/03/17 06:29:09;;;;;;;11.73;9.48;;;7.90;99.90;;;;;;4997261;28;20061;-65
2022/03/17 06:31:37;;;;;;;13.90;8.60;;;7.90;99.90;;;;;;4996464;28;20062;-65
2022/03/17 06:34:03;;;;;;;13.20;8.65;;;7.90;99.90;;;;;;5000861;28;20042;-64
2022/03/17 06:36:29;;;;;;;16.58;8.35;;;7.90;99.90;;;;;;5014302;28;20058;-65
2022/03/17 06:38:54;;;;;;;15.70;8.10;;;7.90;99.90;;;;;;5014822;28;20053;-64
2022/03/17 06:41:20;;;;;;;14.60;7.85;;;7.90;99.90;;;;;;5007745;28;20046;-65
2022/03/17 06:43:45;;;;;;;14.00;8.00;;;7.90;99.90;;;;;;5004314;28;20071;-65
2022/03/17 06:46:11;;;;;;;14.27;7.18;;;7.90;99.90;;;;;;5014425;28;20076;-65
2022/03/17 06:48:37;;;;;;;10.10;6.78;;;7.90;99.90;;;;;;5005332;28;20137;-65
2022/03/17 06:51:02;;;;;;;13.90;6.78;;;8.00;99.90;;;;;;4996380;28;20093;-66
2022/03/17 06:53:28;;;;;;;15.93;7.43;;;7.90;99.90;;;;;;4995897;28;20062;-65
2022/03/17 06:55:53;;;;;;;15.65;6.97;;;7.90;99.90;;;;;;5007290;28;20125;-64
2022/03/17 06:58:19;;;;;;;14.80;6.97;;;7.90;99.90;;;;;;5008825;28;20042;-66
2022/03/17 07:00:44;;;;;;;16.60;7.50;;;7.90;99.90;;;;;;5013521;28;20061;-65
2022/03/17 07:03:10;;;;;;;11.93;6.35;;;7.90;99.90;;;;;;5013224;28;20419;-66
2022/03/17 07:05:36;;;;;;;12.73;5.68;;;7.80;99.90;;;;;;5012276;28;20076;-65
2022/03/17 07:08:01;;;;;;;9.25;5.57;;;7.80;99.90;;;;;;5007806;28;20049;-65
2022/03/17 07:10:27;;;;;;;9.85;4.15;;;7.80;99.90;;;;;;5007758;28;20058;-66
2022/03/17 07:12:53;;;;;;;10.38;3.88;;;7.80;99.90;;;;;;5004751;28;20050;-65
2022/03/17 07:15:20;;;;;;;7.95;3.50;;;7.80;99.90;;;;;;5007874;28;20043;-65
2022/03/17 07:17:45;;;;;;;10.38;3.53;;;7.80;99.90;;;;;;5003443;28;20081;-64
2022/03/17 07:20:17;;;;;;;8.23;2.80;;;7.90;99.90;;;;;;5012903;28;20046;-65
2022/03/17 07:22:44;;;;;;;6.15;2.80;;;7.90;99.90;;;;;;5010587;28;20057;-67
2022/03/17 07:25:11;;;;;;;7.07;3.33;;;7.90;99.90;;;;;;5012960;28;20050;-65
2022/03/17 07:27:40;;;;;;;10.05;3.25;;;8.00;99.90;;;;;;5013135;28;20108;-66
2022/03/17 07:30:07;;;;;;;8.63;2.55;;;8.00;99.90;;;;;;5010871;28;20095;-65
2022/03/17 07:32:33;;;;;;;9.82;2.90;;;8.00;99.90;;;;;;5004428;28;20053;-65
2022/03/17 07:34:59;;;;;;;7.50;2.30;;;8.00;99.90;;;;;;5011886;28;20563;-65
2022/03/17 07:37:25;;;;;;;10.32;2.60;;;8.00;99.90;;;;;;5007965;28;20045;-65
2022/03/17 07:39:50;;;;;;;11.27;2.78;;;8.00;99.90;;;;;;5014739;28;20064;-65
2022/03/17 07:42:16;;;;;;;11.68;2.67;;;7.90;99.90;;;;;;5013145;28;20061;-63
2022/03/17 07:44:42;;;;;;;9.15;2.65;;;8.00;99.90;;;;;;5003575;28;20157;-65
2022/03/17 07:47:08;;;;;;;9.18;2.60;;;7.90;99.90;;;;;;4998417;28;20055;-65
2022/03/17 07:49:37;;;;;;;12.27;3.10;;;7.90;99.90;;;;;;4997872;28;20092;-64
2022/03/17 07:52:04;;;;;;;6.80;2.00;;;7.90;99.90;;;;;;5014203;28;20068;-65
2022/03/17 07:54:30;;;;;;;5.20;1.88;;;7.90;99.90;;;;;;5006147;28;20074;-65
2022/03/17 07:56:58;;;;;;;6.85;1.70;;;7.90;99.90;;;;;;5012132;28;20426;-64
2022/03/17 07:59:24;;;;;;;7.97;2.05;;;7.90;99.90;;;;;;5010424;28;20056;-64
2022/03/17 08:01:51;;;;;;;11.02;1.73;;;7.90;99.90;;;;;;5003444;28;20517;-64
2022/03/17 08:04:16;;;;;;;7.43;2.03;;;7.90;99.90;;;;;;5014293;28;20054;-64
2022/03/17 08:06:42;;;;;;;10.15;1.92;;;7.90;99.90;;;;;;5012292;28;20092;-65
2022/03/17 08:09:08;;;;;;;7.22;1.40;;;7.90;99.90;;;;;;5009392;28;20158;-65
2022/03/17 08:11:33;;;;;;;5.95;1.63;;;7.90;99.90;;;;;;5009209;28;20098;-65
2022/03/17 08:13:59;;;;;;;9.15;2.22;;;7.90;99.90;;;;;;4992697;28;20073;-64
2022/03/17 08:16:24;;;;;;;6.72;1.45;;;7.90;99.90;;;;;;5012227;28;20081;-66
2022/03/17 08:18:50;;;;;;;9.05;2.13;;;7.90;99.90;;;;;;5012510;28;20183;-65
2022/03/17 08:21:17;;;;;;;8.73;2.13;;;7.90;99.90;;;;;;5014266;28;20381;-64
2022/03/17 08:23:42;;;;;;;8.88;2.15;;;7.90;99.90;;;;;;5012334;28;20058;-64
2022/03/17 08:26:08;;;;;;;11.68;2.00;;;7.90;99.90;;;;;;4996176;28;20048;-65
2022/03/17 08:28:34;;;;;;;8.65;2.13;;;7.90;99.90;;;;;;5011255;28;20072;-65
2022/03/17 08:31:00;;;;;;;7.55;2.05;;;7.90;99.90;;;;;;5010336;28;20088;-65
2022/03/17 08:33:25;;;;;;;9.55;1.75;;;7.80;99.90;;;;;;5012383;28;20485;-65
2022/03/17 08:35:52;;;;;;;9.13;2.05;;;7.80;99.90;;;;;;5011456;28;20068;-65
2022/03/17 08:38:17;;;;;;;10.73;2.10;;;7.80;99.90;;;;;;5003475;28;20129;-66
2022/03/17 08:40:43;;;;;;;19.30;2.60;;;7.70;99.90;;;;;;5003473;28;20145;-63
2022/03/17 08:43:09;;;;;;;12.32;2.08;;;7.80;99.90;;;;;;5010462;28;20490;-63
2022/03/17 08:51:06;;;;;;;8.65;2.00;;;7.90;99.90;;;;;;5011971;28;20461;-64
2022/03/17 08:53:32;;;;;;;8.85;2.40;;;7.90;99.90;;;;;;4998139;28;20416;-62
2022/03/17 08:55:58;;;;;;;11.23;1.63;;;7.90;99.90;;;;;;4992476;28;20061;-64
2022/03/17 08:58:23;;;;;;;12.25;2.20;;;7.90;99.90;;;;;;4992524;28;20049;-63
2022/03/17 09:00:49;;;;;;;9.90;2.20;;;7.90;99.90;;;;;;4992847;28;20093;-63
2022/03/17 09:03:15;;;;;;;8.32;1.92;;;7.90;99.90;;;;;;4992862;28;20129;-63
2022/03/17 09:05:41;;;;;;;10.00;2.20;;;7.90;99.90;;;;;;4992392;28;20064;-65
2022/03/17 09:08:08;;;;;;;10.60;2.08;;;7.90;99.90;;;;;;4992894;28;20355;-66
2022/03/17 09:10:35;;;;;;;8.23;2.63;;;7.90;99.90;;;;;;4992590;28;20077;-65
2022/03/17 09:13:07;;;;;;;6.93;1.50;;;7.90;99.90;;;;;;4993403;28;20046;-64
2022/03/17 09:15:35;;;;;;;13.00;1.92;;;7.90;99.90;;;;;;4992833;28;20058;-64
2022/03/17 09:18:00;;;;;;;11.75;1.88;;;8.00;99.90;;;;;;4999844;28;20129;-64
2022/03/17 09:20:26;;;;;;;10.23;1.70;;;8.20;99.90;;;;;;5011810;28;20153;-63
2022/03/17 09:22:52;;;;;;;13.48;2.35;;;8.30;99.90;;;;;;5013193;28;20104;-64
2022/03/17 09:25:23;;;;;;;13.40;2.67;;;8.40;99.90;;;;;;5011700;28;20066;-64
2022/03/17 09:27:49;;;;;;;10.50;2.50;;;8.40;99.90;;;;;;5012444;28;20486;-65
2022/03/17 09:30:15;;;;;;;10.30;2.65;;;8.50;99.90;;;;;;5009471;28;20080;-62
2022/03/17 09:32:40;;;;;;;12.23;3.03;;;8.50;99.90;;;;;;5010600;28;20045;-64
2022/03/17 09:35:07;;;;;;;9.93;2.17;;;8.50;99.90;;;;;;5009798;28;20085;-64
2022/03/17 09:37:32;;;;;;;7.10;2.03;;;8.50;99.90;;;;;;5010899;28;20061;-64
2022/03/17 09:39:58;;;;;;;9.05;2.50;;;8.60;99.90;;;;;;5010616;28;20052;-64
2022/03/17 09:42:23;;;;;;;8.02;2.20;;;8.60;99.90;;;;;;5009594;28;20074;-63
2022/03/17 09:44:52;;;;;;;9.93;1.67;;;8.60;99.90;;;;;;5012022;28;20066;-63
2022/03/17 09:47:21;;;;;;;9.77;2.28;;;8.60;99.90;;;;;;5011007;28;20065;-63
2022/03/17 09:49:48;;;;;;;12.43;2.15;;;8.50;99.90;;;;;;4999875;28;20406;-63
2022/03/17 09:52:17;;;;;;;5.55;1.42;;;8.50;99.90;;;;;;5011077;28;20062;-64
2022/03/17 09:54:45;;;;;;;13.20;2.13;;;8.50;99.90;;;;;;5013973;28;20049;-64
2022/03/17 09:57:11;;;;;;;7.75;1.88;;;8.50;99.90;;;;;;5012891;28;20517;-63
2022/03/17 09:59:36;;;;;;;8.88;1.77;;;8.50;99.90;;;;;;5007916;28;20076;-63
2022/03/17 10:02:03;;;;;;;7.35;1.90;;;8.50;99.90;;;;;;5010344;28;20540;-64
2022/03/17 10:04:33;;;;;;;11.68;2.22;;;8.50;99.90;;;;;;5013160;28;20064;-63
2022/03/17 10:07:00;;;;;;;13.02;2.55;;;8.60;99.90;;;;;;5013929;28;20064;-63
2022/03/17 10:09:28;;;;;;;4.65;1.48;;;8.60;99.90;;;;;;5012987;28;20096;-65
2022/03/17 10:12:01;;;;;;;13.65;2.53;;;8.70;99.90;;;;;;5013629;28;20054;-63
2022/03/17 10:14:39;;;;;;;11.38;2.05;;;8.70;99.90;;;;;;5013872;28;20103;-63
2022/03/17 10:17:25;;;;;;;22.77;3.45;;;8.80;99.90;;;;;;5013821;28;20390;-63
2022/03/17 10:19:51;;;;;;;10.30;2.67;;;8.90;99.90;;;;;;5014221;28;20159;-63
2022/03/17 10:22:16;;;;;;;9.10;2.35;;;9.10;99.90;;;;;;5013754;28;20538;-64
2022/03/17 10:24:52;;;;;;;12.73;2.60;;;9.20;99.90;;;;;;5011935;28;20042;-66
2022/03/17 10:27:38;;;;;;;7.22;1.85;;;9.40;99.90;;;;;;5012143;28;20046;-64
2022/03/17 10:30:06;;;;;;;12.95;1.85;;;9.60;99.90;;;;;;4978695;28;1018750;-65
2022/03/17 10:32:32;;;;;;;8.35;1.58;;;9.70;99.90;;;;;;5015374;28;20084;-63
2022/03/17 10:34:58;;;;;;;8.63;2.17;;;9.80;99.90;;;;;;5014774;28;20493;-63
2022/03/17 10:37:25;;;;;;;6.45;2.03;;;10.00;99.90;;;;;;5011328;28;20048;-64
2022/03/17 10:39:56;;;;;;;7.85;1.50;;;10.20;99.90;;;;;;5014667;28;20077;-63
2022/03/17 10:42:26;;;;;;;5.78;1.45;;;10.40;99.90;;;;;;5014007;28;20125;-64
2022/03/17 10:44:54;;;;;;;6.47;1.75;;;10.40;99.90;;;;;;5014913;28;20046;-63
2022/03/17 10:47:31;;;;;;;10.68;2.10;;;10.50;99.90;;;;;;5015828;28;20478;-64
2022/03/17 10:50:09;;;;;;;5.13;1.20;;;10.50;99.90;;;;;;4999491;28;20153;-64
2022/03/17 10:52:51;;;;;;;6.07;1.27;;;10.40;99.90;;;;;;4997657;28;20046;-63
2022/03/17 10:55:25;;;;;;;9.47;1.37;;;10.60;99.90;;;;;;4995611;28;20428;-63
2022/03/17 10:57:53;;;;;;;8.65;2.22;;;10.70;99.90;;;;;;5000956;28;20066;-64
2022/03/17 11:00:21;;;;;;;6.00;1.20;;;10.90;99.90;;;;;;5014178;28;20046;-63
2022/03/17 11:02:49;;;;;;;6.70;1.38;;;11.00;99.90;;;;;;5013038;28;20049;-63
2022/03/17 11:05:17;;;;;;;8.48;1.77;;;11.10;99.90;;;;;;5006397;28;20038;-65
2022/03/17 11:07:45;;;;;;;6.72;1.27;;;11.20;99.90;;;;;;5012287;28;20088;-64
2022/03/17 11:10:15;;;;;;;12.50;2.08;;;11.30;99.90;;;;;;5014185;28;20042;-64
2022/03/17 11:12:43;;;;;;;7.18;1.70;;;11.30;99.90;;;;;;5012468;28;20129;-66
2022/03/17 11:15:09;;;;;;;6.82;1.90;;;11.20;99.90;;;;;;5014075;28;20045;-65
2022/03/17 11:17:49;;;;;;;5.28;1.67;;;11.20;99.90;;;;;;5015419;28;20072;-64
2022/03/17 11:20:22;;;;;;;5.82;1.50;;;11.10;99.90;;;;;;5013921;28;20042;-64
2022/03/17 11:23:06;;;;;;;8.85;1.80;;;11.00;99.90;;;;;;5009396;28;20053;-67
2022/03/17 11:25:34;;;;;;;9.80;2.25;;;10.90;99.90;;;;;;5011227;28;20109;-65
2022/03/17 11:28:01;;;;;;;5.47;1.73;;;10.90;99.90;;;;;;5012798;28;20046;-66
2022/03/17 11:30:45;;;;;;;7.03;1.38;;;11.10;99.90;;;;;;5013748;28;20064;-66
2022/03/17 11:33:27;;;;;;;4.53;1.40;;;11.20;99.90;;;;;;5013159;28;20367;-65
2022/03/17 11:35:55;;;;;;;9.13;1.58;;;11.40;99.90;;;;;;4997557;28;20478;-66
2022/03/17 11:38:27;;;;;;;8.50;1.50;;;11.40;99.90;;;;;;5012721;28;20054;-66
2022/03/17 11:41:15;;;;;;;5.40;1.35;;;11.50;99.90;;;;;;4996662;28;20050;-65
2022/03/17 11:43:41;;;;;;;8.63;1.85;;;11.70;99.90;;;;;;5012338;28;20053;-65
2022/03/17 11:46:18;;;;;;;7.07;1.80;;;11.80;99.90;;;;;;5012785;28;20092;-65
2022/03/17 11:48:45;;;;;;;7.78;1.52;;;11.90;99.90;;;;;;5013548;28;20559;-65
2022/03/17 11:51:12;;;;;;;8.05;2.08;;;12.00;99.90;;;;;;5013127;28;20112;-64
2022/03/17 11:53:44;;;;;;;8.57;1.90;;;11.90;99.90;;;;;;4997430;28;20042;-67
2022/03/17 11:56:11;;;;;;;10.38;1.80;;;12.00;99.90;;;;;;5012772;28;20117;-64
2022/03/17 11:58:42;;;;;;;6.20;1.45;;;12.10;99.90;;;;;;5011439;28;20450;-66
2022/03/17 12:01:40;;;;;;;8.63;1.92;;;11.90;99.90;;;;;;5013677;28;20054;-65
2022/03/17 12:04:08;;;;;;;8.27;2.13;;;11.70;97.10;;;;;;5012692;28;20050;-65
2022/03/17 12:06:35;;;;;;;6.65;1.88;;;11.60;99.90;;;;;;5013098;28;20527;-66
2022/03/17 12:09:05;;;;;;;7.65;1.33;;;11.40;99.90;;;;;;5011440;28;20124;-65
2022/03/17 12:11:36;;;;;;;7.55;1.95;;;11.30;99.90;;;;;;5011734;28;20053;-66
2022/03/17 12:14:24;;;;;;;4.13;1.40;;;11.20;99.90;;;;;;5012390;28;20050;-66
2022/03/17 12:17:06;;;;;;;4.93;1.58;;;11.30;99.90;;;;;;4993215;28;20509;-66
2022/03/17 12:19:36;;;;;;;11.80;2.33;;;11.40;99.90;;;;;;4994996;28;20099;-66
2022/03/17 12:22:09;;;;;;;7.65;1.80;;;11.60;99.90;;;;;;4993067;28;20065;-66
2022/03/17 12:24:45;;;;;;;5.75;1.90;;;11.90;99.90;;;;;;5014433;28;20057;-66
2022/03/17 12:27:17;;;;;;;8.15;1.98;;;12.00;99.80;;;;;;5011857;28;20073;-65
2022/03/17 12:29:45;;;;;;;12.63;1.83;;;11.80;99.90;;;;;;5011777;28;20108;-66
2022/03/17 12:32:18;;;;;;;10.35;2.22;;;11.80;99.90;;;;;;5012995;28;20173;-68
2022/03/17 12:34:49;;;;;;;6.57;1.98;;;11.80;99.90;;;;;;5013038;28;20054;-66
2022/03/17 12:37:17;;;;;;;7.47;2.13;;;11.70;99.90;;;;;;5012296;28;20077;-66
2022/03/17 12:39:48;;;;;;;7.35;1.80;;;11.70;99.90;;;;;;5012769;28;20064;-66
2022/03/17 12:42:17;;;;;;;4.88;1.83;;;11.60;99.90;;;;;;5008707;28;20060;-65
2022/03/17 12:44:53;;;;;;;3.83;1.38;;;11.70;99.90;;;;;;5012614;28;20474;-65
2022/03/17 12:47:20;;;;;;;6.53;1.60;;;11.70;96.50;;;;;;5012288;28;20137;-65
2022/03/17 12:49:47;;;;;;;10.10;1.90;;;11.80;99.90;;;;;;4999729;28;20473;-64
2022/03/17 12:52:25;;;;;;;9.13;1.98;;;11.70;98.30;;;;;;4992976;28;20062;-65
2022/03/17 12:54:55;;;;;;;3.70;1.63;;;11.60;86.60;;;;;;4992643;28;20085;-65
2022/03/17 12:57:23;;;;;;;5.68;1.80;;;11.70;99.90;;;;;;5005837;28;20478;-66